createdAt,value
2023-02-11T00:00:07.064Z,28.40
2023-02-11T00:02:36.171Z,29.85
2023-02-11T00:05:04.154Z,28.45
2023-02-11T00:07:32.157Z,30.75
2023-02-11T00:10:00.202Z,30.15
2023-02-11T00:12:28.201Z,28.63
2023-02-11T00:14:56.182Z,29.55
2023-02-11T00:17:24.042Z,28.85
2023-02-11T00:19:53.439Z,30.63
2023-02-11T00:22:21.536Z,32.13
2023-02-11T00:24:49.396Z,31.30
2023-02-11T00:27:17.142Z,31.85
2023-02-11T00:29:44.951Z,29.67
2023-02-11T00:32:12.730Z,29.08
2023-02-11T00:34:40.500Z,29.33
2023-02-11T00:37:09.575Z,28.77
2023-02-11T00:39:38.305Z,29.98
2023-02-11T00:42:06.058Z,28.70
2023-02-11T00:44:33.802Z,29.02
2023-02-11T00:47:01.553Z,28.98
2023-02-11T00:49:29.505Z,29.00
2023-02-11T00:51:57.284Z,29.60
2023-02-11T00:54:28.432Z,30.95
2023-02-11T00:56:59.490Z,30.02
2023-02-11T00:59:27.433Z,30.00
2023-02-11T01:01:55.253Z,28.85
2023-02-11T01:04:23.293Z,28.30
2023-02-11T01:06:51.581Z,27.98
2023-02-11T01:09:21.126Z,27.50
2023-02-11T01:11:50.432Z,27.80
2023-02-11T01:14:18.154Z,28.90
2023-02-11T01:16:46.109Z,29.75
2023-02-11T01:19:13.901Z,28.42
2023-02-11T01:21:41.636Z,30.33
2023-02-11T01:24:09.558Z,28.58
2023-02-11T01:26:37.741Z,28.83
2023-02-11T01:29:06.859Z,29.50
2023-02-11T01:31:34.758Z,29.60
2023-02-11T01:34:02.825Z,29.15
2023-02-11T01:36:30.580Z,28.25
2023-02-11T01:38:58.698Z,28.55
2023-02-11T01:41:26.474Z,29.55
2023-02-11T01:43:54.600Z,28.92
2023-02-11T01:46:34.846Z,27.75
2023-02-11T01:49:05.523Z,28.63
2023-02-11T01:51:34.898Z,28.60
2023-02-11T01:54:20.985Z,30.98
2023-02-11T01:57:08.253Z,28.35
2023-02-11T01:59:39.714Z,28.35
2023-02-11T02:02:10.957Z,28.98
2023-02-11T02:04:42.630Z,27.55
2023-02-11T02:07:12.996Z,29.92
2023-02-11T02:09:43.194Z,28.38
2023-02-11T02:12:11.218Z,28.08
2023-02-11T02:14:39.793Z,30.48
2023-02-11T02:17:11.694Z,28.17
2023-02-11T02:20:11.844Z,26.08
2023-02-11T02:23:02.662Z,30.13
2023-02-11T02:25:43.644Z,28.50
2023-02-11T02:28:20.695Z,29.27
2023-02-11T02:31:01.981Z,26.13
2023-02-11T02:33:45.165Z,28.30
2023-02-11T02:38:45.194Z,28.80
2023-02-11T02:41:15.615Z,27.58
2023-02-11T02:43:45.042Z,27.35
2023-02-11T02:46:14.324Z,30.80
2023-02-11T02:48:43.773Z,27.08
2023-02-11T02:51:16.389Z,29.73
2023-02-11T02:53:49.331Z,29.27
2023-02-11T02:58:53.198Z,27.08
2023-02-11T03:01:27.240Z,28.08
2023-02-11T03:04:01.372Z,26.95
2023-02-11T03:06:31.512Z,27.77
2023-02-11T03:09:02.243Z,27.08
2023-02-11T03:11:30.108Z,27.95
2023-02-11T03:13:58.468Z,27.42
2023-02-11T03:16:27.011Z,27.48
2023-02-11T03:18:58.378Z,27.58
2023-02-11T03:21:27.984Z,28.13
2023-02-11T03:23:57.603Z,29.90
2023-02-11T03:26:27.663Z,27.52
2023-02-11T03:28:56.845Z,26.48
2023-02-11T03:31:29.926Z,29.38
2023-02-11T03:34:00.929Z,28.13
2023-02-11T03:36:37.065Z,28.17
2023-02-11T03:39:05.809Z,26.30
2023-02-11T03:41:34.957Z,26.63
2023-02-11T03:44:03.516Z,26.83
2023-02-11T03:46:32.652Z,28.38
2023-02-11T03:49:03.954Z,27.52
2023-02-11T03:51:33.758Z,29.45
2023-02-11T03:54:03.337Z,27.90
2023-02-11T03:56:32.815Z,27.13
2023-02-11T03:59:00.810Z,27.58
2023-02-11T04:01:28.582Z,27.60
2023-02-11T04:03:56.641Z,29.55
2023-02-11T04:06:24.389Z,28.52
2023-02-11T04:08:53.774Z,29.95
2023-02-11T04:11:21.544Z,28.23
2023-02-11T04:13:49.313Z,28.90
2023-02-11T04:16:17.081Z,28.17
2023-02-11T04:18:44.933Z,27.30
2023-02-11T04:21:12.853Z,27.92
2023-02-11T04:23:40.821Z,29.42
2023-02-11T04:26:09.915Z,28.40
2023-02-11T04:28:37.702Z,27.90
2023-02-11T04:31:05.885Z,29.08
2023-02-11T04:33:33.883Z,27.33
2023-02-11T04:36:01.631Z,30.08
2023-02-11T04:38:29.387Z,29.00
2023-02-11T04:41:00.523Z,28.08
2023-02-11T04:43:29.620Z,28.50
2023-02-11T04:45:58.096Z,28.77
2023-02-11T04:48:26.256Z,29.70
2023-02-11T04:50:54.358Z,29.58
2023-02-11T04:53:22.177Z,28.95
2023-02-11T04:55:51.031Z,28.05
2023-02-11T04:58:19.415Z,28.73
2023-02-11T05:00:50.848Z,28.30
2023-02-11T05:03:18.871Z,29.20
2023-02-11T05:05:46.678Z,27.95
2023-02-11T05:08:14.815Z,26.00
2023-02-11T05:10:46.574Z,32.45
2023-02-11T05:13:14.553Z,28.35
2023-02-11T05:15:42.274Z,27.90
2023-02-11T05:18:11.550Z,27.40
2023-02-11T05:20:39.698Z,27.27
2023-02-11T05:23:07.667Z,26.95
2023-02-11T05:25:35.518Z,28.20
2023-02-11T05:28:03.483Z,27.15
2023-02-11T05:30:31.760Z,29.27
2023-02-11T05:32:59.682Z,28.33
2023-02-11T05:35:28.758Z,28.83
2023-02-11T05:37:56.494Z,28.75
2023-02-11T05:40:24.276Z,27.40
2023-02-11T05:42:52.026Z,29.77
2023-02-11T05:45:19.763Z,29.20
2023-02-11T05:47:47.755Z,27.65
2023-02-11T05:50:18.564Z,28.83
2023-02-11T05:52:47.802Z,27.77
2023-02-11T05:55:15.789Z,28.83
2023-02-11T05:57:43.755Z,28.80
2023-02-11T06:00:12.208Z,29.40
2023-02-11T06:02:40.224Z,27.80
2023-02-11T06:05:08.428Z,27.58
2023-02-11T06:07:36.171Z,27.77
2023-02-11T06:10:05.722Z,27.67
2023-02-11T06:12:33.724Z,28.05
2023-02-11T06:15:01.462Z,30.73
2023-02-11T06:17:31.700Z,27.90
2023-02-11T06:19:59.659Z,27.30
2023-02-11T06:22:27.530Z,29.10
2023-02-11T06:25:01.768Z,30.10
2023-02-11T06:27:31.844Z,27.80
2023-02-11T06:29:59.860Z,28.58
2023-02-11T06:32:45.485Z,28.05
2023-02-11T06:35:14.302Z,26.63
2023-02-11T06:37:42.369Z,27.58
2023-02-11T06:40:10.288Z,26.60
2023-02-11T06:42:39.794Z,29.10
2023-02-11T06:45:09.610Z,27.70
2023-02-11T06:47:37.534Z,28.52
2023-02-11T06:50:05.868Z,27.27
2023-02-11T06:52:33.761Z,28.75
2023-02-11T06:55:02.903Z,28.30
2023-02-11T06:57:30.987Z,30.40
2023-02-11T07:00:00.307Z,27.65
2023-02-11T07:02:28.450Z,28.30
2023-02-11T07:04:56.557Z,28.90
2023-02-11T07:07:24.290Z,28.25
2023-02-11T07:09:52.103Z,27.45
2023-02-11T07:12:19.863Z,28.85
2023-02-11T07:14:47.638Z,29.13
2023-02-11T07:17:17.048Z,31.58
2023-02-11T07:19:44.993Z,31.50
2023-02-11T07:22:12.733Z,30.05
2023-02-11T07:24:40.591Z,28.63
2023-02-11T07:27:08.628Z,28.75
2023-02-11T07:29:36.353Z,29.05
2023-02-11T07:32:04.467Z,27.10
2023-02-11T07:34:33.758Z,27.00
2023-02-11T07:37:01.597Z,28.88
2023-02-11T07:39:29.536Z,26.52
2023-02-11T07:41:57.539Z,28.05
2023-02-11T07:44:25.365Z,29.23
2023-02-11T07:46:53.551Z,27.00
2023-02-11T07:49:21.393Z,28.90
2023-02-11T07:51:51.516Z,27.25
2023-02-11T07:54:19.297Z,26.88
2023-02-11T07:56:47.466Z,27.60
2023-02-11T07:59:15.534Z,26.00
2023-02-11T08:01:43.386Z,27.45
2023-02-11T08:04:11.383Z,28.30
2023-02-11T08:06:41.810Z,27.83
2023-02-11T08:09:14.775Z,26.92
2023-02-11T08:14:10.378Z,25.67
2023-02-11T08:16:39.266Z,27.98
2023-02-11T08:19:08.081Z,28.10
2023-02-11T08:21:35.842Z,27.42
2023-02-11T08:24:04.324Z,26.20
2023-02-11T08:26:34.830Z,28.70
2023-02-11T08:29:03.251Z,28.15
2023-02-11T08:31:33.253Z,28.00
2023-02-11T08:34:02.353Z,28.25
2023-02-11T08:36:32.714Z,28.13
2023-02-11T08:39:17.586Z,26.80
2023-02-11T08:41:49.043Z,28.45
2023-02-11T08:44:17.153Z,28.13
2023-02-11T08:46:48.400Z,27.08
2023-02-11T08:49:16.426Z,29.38
2023-02-11T08:51:46.988Z,28.85
2023-02-11T08:54:17.847Z,26.15
2023-02-11T08:56:45.658Z,27.30
2023-02-11T08:59:17.718Z,28.38
2023-02-11T09:01:47.374Z,27.87
2023-02-11T09:04:15.580Z,28.77
2023-02-11T09:06:45.899Z,28.92
2023-02-11T09:09:14.702Z,28.55
2023-02-11T09:11:46.265Z,29.60
2023-02-11T09:14:19.728Z,29.05
2023-02-11T09:16:48.131Z,27.50
2023-02-11T09:19:16.318Z,29.17
2023-02-11T09:21:44.284Z,29.00
2023-02-11T09:24:12.541Z,28.92
2023-02-11T09:26:42.196Z,28.58
2023-02-11T09:29:10.309Z,29.15
2023-02-11T09:31:39.526Z,26.15
2023-02-11T09:34:08.034Z,27.52
2023-02-11T09:36:38.477Z,25.90
2023-02-11T09:39:08.212Z,28.52
2023-02-11T09:41:53.701Z,26.90
2023-02-11T09:44:23.081Z,27.02
2023-02-11T09:46:55.832Z,29.25
2023-02-11T09:49:26.618Z,26.63
2023-02-11T09:51:55.814Z,28.23
2023-02-11T09:54:28.024Z,27.13
2023-02-11T09:56:55.757Z,25.75
2023-02-11T09:59:23.911Z,27.02
2023-02-11T10:01:56.420Z,25.13
2023-02-11T10:04:29.910Z,28.23
2023-02-11T10:06:58.708Z,26.08
2023-02-11T10:09:36.124Z,26.67
2023-02-11T10:12:10.792Z,29.83
2023-02-11T10:14:46.316Z,29.75
2023-02-11T10:17:20.173Z,29.02
2023-02-11T10:19:56.397Z,26.42
2023-02-11T10:22:26.452Z,27.45
2023-02-11T10:24:55.418Z,26.60
2023-02-11T10:27:25.942Z,28.35
2023-02-11T10:29:57.097Z,26.30
2023-02-11T10:32:31.902Z,26.13
2023-02-11T10:35:01.512Z,27.13
2023-02-11T10:37:29.653Z,26.52
2023-02-11T10:39:57.406Z,25.55
2023-02-11T10:42:25.973Z,27.98
2023-02-11T10:44:57.993Z,25.35
2023-02-11T10:47:28.408Z,27.13
2023-02-11T10:50:03.241Z,27.50
2023-02-11T10:52:31.818Z,27.52
2023-02-11T10:55:01.082Z,26.35
2023-02-11T10:57:30.976Z,25.42
2023-02-11T11:00:00.416Z,26.77
2023-02-11T11:02:32.122Z,30.30
2023-02-11T11:05:02.418Z,27.65
2023-02-11T11:07:31.527Z,26.08
2023-02-11T11:10:02.819Z,26.50
2023-02-11T11:12:32.540Z,24.80
2023-02-11T11:15:01.303Z,25.52
2023-02-11T11:17:29.502Z,27.77
2023-02-11T11:20:12.190Z,25.73
2023-02-11T11:22:41.766Z,25.23
2023-02-11T11:25:22.146Z,27.55
2023-02-11T11:27:50.752Z,25.15
2023-02-11T11:30:19.208Z,24.73
2023-02-11T11:32:47.119Z,24.98
2023-02-11T11:35:25.925Z,24.35
2023-02-11T11:37:56.208Z,25.33
2023-02-11T11:40:26.506Z,23.50
2023-02-11T11:43:08.043Z,24.95
2023-02-11T11:45:35.931Z,23.77
2023-02-11T11:48:05.522Z,25.70
2023-02-11T11:50:35.192Z,24.35
2023-02-11T11:53:06.422Z,26.80
2023-02-11T11:55:37.487Z,24.13
2023-02-11T11:58:05.429Z,27.13
2023-02-11T12:00:37.085Z,26.00
2023-02-11T12:03:19.506Z,27.00
2023-02-11T12:05:50.046Z,23.20
2023-02-11T12:08:23.833Z,22.35
2023-02-11T12:10:56.665Z,19.88
2023-02-11T12:13:31.209Z,20.17
2023-02-11T12:16:05.320Z,18.80
2023-02-11T12:18:47.633Z,19.08
2023-02-11T12:21:21.198Z,18.03
2023-02-11T12:23:56.195Z,18.70
2023-02-11T12:26:24.753Z,18.15
2023-02-11T12:28:58.683Z,17.85
2023-02-11T12:31:30.631Z,16.60
2023-02-11T12:34:26.306Z,17.42
2023-02-11T12:37:02.641Z,18.50
2023-02-11T12:39:39.214Z,18.27
2023-02-11T12:42:30.419Z,20.58
2023-02-11T12:45:07.017Z,16.27
2023-02-11T12:47:39.777Z,16.02
2023-02-11T12:50:15.718Z,16.58
2023-02-11T12:52:48.767Z,16.80
2023-02-11T12:57:47.487Z,14.65
2023-02-11T13:00:18.398Z,14.10
2023-02-11T13:02:49.281Z,13.93
2023-02-11T13:05:23.550Z,16.13
2023-02-11T13:07:52.205Z,16.50
2023-02-11T13:10:27.774Z,15.38
2023-02-11T13:13:15.720Z,13.95
2023-02-11T13:15:44.993Z,14.13
2023-02-11T13:18:19.271Z,15.18
2023-02-11T13:20:52.472Z,14.40
2023-02-11T13:23:24.387Z,15.57
2023-02-11T13:25:56.769Z,14.88
2023-02-11T13:28:30.620Z,14.50
2023-02-11T13:31:02.957Z,15.25
2023-02-11T13:33:35.819Z,14.57
2023-02-11T13:36:13.935Z,14.15
2023-02-11T13:38:42.353Z,15.40
2023-02-11T13:41:17.519Z,15.38
2023-02-11T13:43:57.934Z,15.65
2023-02-11T13:46:26.508Z,14.70
2023-02-11T13:48:54.866Z,16.55
2023-02-11T13:51:35.676Z,15.88
2023-02-11T13:54:03.788Z,15.82
2023-02-11T13:56:33.253Z,14.52
2023-02-11T13:59:04.132Z,17.33
2023-02-11T14:01:42.776Z,15.73
2023-02-11T14:04:39.237Z,16.17
2023-02-11T14:07:39.504Z,13.88
2023-02-11T14:10:27.921Z,17.27
2023-02-11T14:13:06.290Z,16.08
2023-02-11T14:15:40.842Z,16.10
2023-02-11T14:18:23.756Z,16.77
2023-02-11T14:20:53.795Z,19.83
2023-02-11T14:23:24.424Z,17.17
2023-02-11T14:25:57.116Z,15.48
2023-02-11T14:28:26.843Z,16.75
2023-02-11T14:31:00.926Z,16.80
2023-02-11T14:33:40.391Z,17.48
2023-02-11T14:36:11.671Z,16.17
2023-02-11T14:38:47.493Z,16.95
2023-02-11T14:41:19.184Z,17.70
2023-02-11T14:43:48.598Z,17.98
2023-02-11T14:46:18.600Z,16.95
2023-02-11T14:48:47.700Z,16.67
2023-02-11T14:51:17.096Z,18.00
2023-02-11T14:53:47.399Z,17.77
2023-02-11T14:56:20.023Z,18.42
2023-02-11T14:58:48.044Z,17.55
2023-02-11T15:01:29.563Z,16.58
2023-02-11T15:03:59.021Z,17.20
2023-02-11T15:06:29.574Z,15.20
2023-02-11T15:09:00.891Z,15.85
2023-02-11T15:11:30.395Z,15.70
2023-02-11T15:13:59.302Z,16.45
2023-02-11T15:16:29.664Z,17.50
2023-02-11T15:18:58.097Z,16.27
2023-02-11T15:21:27.454Z,16.33
2023-02-11T15:23:59.800Z,15.40
2023-02-11T15:26:27.643Z,17.77
2023-02-11T15:28:56.057Z,16.50
2023-02-11T15:31:24.790Z,14.77
2023-02-11T15:33:54.889Z,14.25
2023-02-11T15:36:28.399Z,15.63
2023-02-11T15:39:15.112Z,14.45
2023-02-11T15:41:44.437Z,13.77
2023-02-11T15:44:29.396Z,14.25
2023-02-11T15:46:57.333Z,12.90
2023-02-11T15:49:26.907Z,15.48
2023-02-11T15:51:55.475Z,14.30
2023-02-11T15:54:24.890Z,14.45
2023-02-11T15:56:55.410Z,16.45
2023-02-11T15:59:26.702Z,14.98
2023-02-11T16:01:55.534Z,15.93
2023-02-11T16:04:24.703Z,15.23
2023-02-11T16:06:54.281Z,16.58
2023-02-11T16:09:40.044Z,26.73
2023-02-11T16:12:27.114Z,18.92
2023-02-11T16:14:56.537Z,14.48
2023-02-11T16:17:25.680Z,17.20
2023-02-11T16:19:54.336Z,16.90
2023-02-11T16:22:25.931Z,19.48
2023-02-11T16:24:54.610Z,20.35
2023-02-11T16:27:24.033Z,18.92
2023-02-11T16:29:52.609Z,19.95
2023-02-11T16:32:22.789Z,18.52
2023-02-11T16:34:50.778Z,16.75
2023-02-11T16:37:18.744Z,18.35
2023-02-11T16:39:47.920Z,20.15
2023-02-11T16:42:15.880Z,19.25
2023-02-11T16:44:43.651Z,18.15
2023-02-11T16:47:18.882Z,19.17
2023-02-11T16:49:46.906Z,17.40
2023-02-11T16:52:15.837Z,18.98
2023-02-11T16:54:43.651Z,18.38
2023-02-11T16:57:15.269Z,20.38
2023-02-11T16:59:43.002Z,20.55
2023-02-11T17:02:14.911Z,19.40
2023-02-11T17:04:42.805Z,20.63
2023-02-11T17:07:11.626Z,19.88
2023-02-11T17:09:39.665Z,20.58
2023-02-11T17:12:07.678Z,20.98
2023-02-11T17:14:36.758Z,20.45
2023-02-11T17:17:05.233Z,20.88
2023-02-11T17:19:33.006Z,23.90
2023-02-11T17:22:00.803Z,22.67
2023-02-11T17:24:28.978Z,23.83
2023-02-11T17:26:56.977Z,46.55
2023-02-11T17:29:25.785Z,24.95
2023-02-11T17:31:54.966Z,22.92
2023-02-11T17:34:23.279Z,22.55
2023-02-11T17:36:51.800Z,22.88
2023-02-11T17:39:21.197Z,23.05
2023-02-11T17:41:49.066Z,22.48
2023-02-11T17:44:17.220Z,25.73
2023-02-11T17:46:45.252Z,21.98
2023-02-11T17:49:14.381Z,22.67
2023-02-11T17:51:42.169Z,22.55
2023-02-11T17:54:11.878Z,21.83
2023-02-11T17:56:39.809Z,22.70
2023-02-11T17:59:08.571Z,22.48
2023-02-11T18:01:36.840Z,23.13
2023-02-11T18:04:05.274Z,22.77
2023-02-11T18:06:34.812Z,24.70
2023-02-11T18:09:04.579Z,24.95
2023-02-11T18:11:33.251Z,23.90
2023-02-11T18:14:01.372Z,23.67
2023-02-11T18:16:30.518Z,24.08
2023-02-11T18:18:59.344Z,23.38
2023-02-11T18:21:27.457Z,23.50
2023-02-11T18:23:56.949Z,23.85
2023-02-11T18:26:25.777Z,22.73
2023-02-11T18:28:53.623Z,22.10
2023-02-11T18:31:21.927Z,22.50
2023-02-11T18:33:49.973Z,22.88
2023-02-11T18:36:17.751Z,22.30
2023-02-11T18:38:45.605Z,22.58
2023-02-11T18:41:15.151Z,23.55
2023-02-11T18:43:43.086Z,22.05
2023-02-11T18:46:12.132Z,23.98
2023-02-11T18:48:40.501Z,20.83
2023-02-11T18:51:09.556Z,23.23
2023-02-11T18:53:37.418Z,22.50
2023-02-11T18:56:07.545Z,22.88
2023-02-11T18:58:37.600Z,21.05
2023-02-11T19:01:10.933Z,23.10
2023-02-11T19:03:39.613Z,23.25
2023-02-11T19:06:07.778Z,21.20
2023-02-11T19:08:35.698Z,20.92
2023-02-11T19:11:05.608Z,22.25
2023-02-11T19:13:33.349Z,22.48
2023-02-11T19:16:05.848Z,21.85
2023-02-11T19:18:34.017Z,21.10
2023-02-11T19:21:01.801Z,20.52
2023-02-11T19:23:29.908Z,22.65
2023-02-11T19:25:57.662Z,23.65
2023-02-11T19:28:25.413Z,21.70
2023-02-11T19:30:53.422Z,20.42
2023-02-11T19:33:22.529Z,21.60
2023-02-11T19:35:50.516Z,25.25
2023-02-11T19:38:19.112Z,23.30
2023-02-11T19:40:47.139Z,22.13
2023-02-11T19:43:14.951Z,23.35
2023-02-11T19:45:43.108Z,24.63
2023-02-11T19:48:12.830Z,22.52
2023-02-11T19:50:41.987Z,22.08
2023-02-11T19:53:09.786Z,21.83
2023-02-11T19:55:37.557Z,22.88
2023-02-11T19:58:05.277Z,22.73
2023-02-11T20:00:33.096Z,23.35
2023-02-11T20:03:00.919Z,22.88
2023-02-11T20:05:28.965Z,22.55
2023-02-11T20:07:58.363Z,24.42
2023-02-11T20:10:26.300Z,21.92
2023-02-11T20:12:54.570Z,20.55
2023-02-11T20:15:22.306Z,21.95
2023-02-11T20:17:50.040Z,22.08
2023-02-11T20:20:18.516Z,21.98
2023-02-11T20:22:46.607Z,19.52
2023-02-11T20:25:15.834Z,22.30
2023-02-11T20:27:43.736Z,22.25
2023-02-11T20:30:11.867Z,23.25
2023-02-11T20:32:39.976Z,21.88
2023-02-11T20:35:08.553Z,23.02
2023-02-11T20:37:36.762Z,23.67
2023-02-11T20:40:04.703Z,21.35
2023-02-11T20:42:34.150Z,21.10
2023-02-11T20:45:02.327Z,22.08
2023-02-11T20:47:30.098Z,22.00
2023-02-11T20:49:58.137Z,22.13
2023-02-11T20:52:25.903Z,21.63
2023-02-11T20:54:53.626Z,21.30
2023-02-11T20:57:21.425Z,21.55
2023-02-11T20:59:50.532Z,22.70
2023-02-11T21:02:18.332Z,22.27
2023-02-11T21:04:46.090Z,21.55
2023-02-11T21:07:13.835Z,21.50
2023-02-11T21:09:41.618Z,22.25
2023-02-11T21:12:09.396Z,21.02
2023-02-11T21:14:37.117Z,19.33
2023-02-11T21:17:06.992Z,21.27
2023-02-11T21:19:34.742Z,22.35
2023-02-11T21:22:02.710Z,18.23
2023-02-11T21:24:31.398Z,18.48
2023-02-11T21:26:59.496Z,17.90
2023-02-11T21:29:27.284Z,18.90
2023-02-11T21:31:55.300Z,22.58
2023-02-11T21:34:24.456Z,22.02
2023-02-11T21:36:52.365Z,21.73
2023-02-11T21:39:20.625Z,21.35
2023-02-11T21:41:48.376Z,20.80
2023-02-11T21:44:16.098Z,20.38
2023-02-11T21:46:44.085Z,20.75
2023-02-11T21:49:11.821Z,20.70
2023-02-11T21:51:41.115Z,20.98
2023-02-11T21:54:11.961Z,22.85
2023-02-11T21:56:40.627Z,21.63
2023-02-11T21:59:08.569Z,21.70
2023-02-11T22:01:36.896Z,21.95
2023-02-11T22:04:04.736Z,19.63
2023-02-11T22:06:34.756Z,23.02
2023-02-11T22:09:06.062Z,20.27
2023-02-11T22:11:34.173Z,20.67
2023-02-11T22:14:01.925Z,19.95
2023-02-11T22:16:30.232Z,19.15
2023-02-11T22:18:59.285Z,20.00
2023-02-11T22:21:27.341Z,19.00
2023-02-11T22:23:55.624Z,17.88
2023-02-11T22:26:26.103Z,17.63
2023-02-11T22:28:53.910Z,18.60
2023-02-11T22:31:22.566Z,16.90
2023-02-11T22:33:50.505Z,18.35
2023-02-11T22:36:19.394Z,19.27
2023-02-11T22:38:47.537Z,19.23
2023-02-11T22:41:15.674Z,19.52
2023-02-11T22:43:45.450Z,17.80
2023-02-11T22:46:14.529Z,19.13
2023-02-11T22:48:42.961Z,19.77
2023-02-11T22:51:11.636Z,20.77
2023-02-11T22:53:39.622Z,20.55
2023-02-11T22:56:08.084Z,20.08
2023-02-11T22:58:36.594Z,18.58
2023-02-11T23:01:06.310Z,17.52
2023-02-11T23:03:34.747Z,18.17
2023-02-11T23:06:03.062Z,18.52
2023-02-11T23:08:31.195Z,18.27
2023-02-11T23:11:04.881Z,16.30
2023-02-11T23:13:34.562Z,19.48
2023-02-11T23:16:04.122Z,17.17
2023-02-11T23:18:33.656Z,16.67
2023-02-11T23:21:04.452Z,17.90
2023-02-11T23:23:32.256Z,19.00
2023-02-11T23:26:00.227Z,19.83
2023-02-11T23:28:28.226Z,17.83
2023-02-11T23:30:56.021Z,18.65
2023-02-11T23:33:24.293Z,18.58
2023-02-11T23:35:53.834Z,17.88
2023-02-11T23:38:21.727Z,18.65
2023-02-11T23:40:49.470Z,18.67
2023-02-11T23:43:17.239Z,17.88
2023-02-11T23:45:45.283Z,18.13
2023-02-11T23:48:13.262Z,17.17
2023-02-11T23:50:43.925Z,17.40
2023-02-11T23:53:13.284Z,17.35
2023-02-11T23:55:41.406Z,18.85
2023-02-11T23:58:10.484Z,18.05
